Time,TemperatureF,DewpointF,PressureIn,WindDirection,WindDirectionDegrees,WindSpeedMPH,WindSpeedGustMPH,Humidity,HourlyPrecipIn,Conditions,Clouds,dailyrainin,SoftwareType,DateUTC
2013-07-06 00:01:00,88.0,47.0,29.90,WSW,249,0.0,-999.0,24,0.00,,,-99.99,,2013-07-06 06:01:00,
2013-07-06 00:12:00,88.0,46.0,29.91,WSW,253,0.0,-999.0,23,0.00,,,-99.99,,2013-07-06 06:12:00,
2013-07-06 00:22:00,88.0,46.0,29.91,WSW,253,0.0,-999.0,23,0.00,,,-99.99,,2013-07-06 06:22:00,
2013-07-06 00:34:00,88.0,48.0,29.91,West,274,6.0,-999.0,25,0.00,,,-99.99,,2013-07-06 06:34:00,
2013-07-06 00:43:00,87.0,54.0,29.91,West,277,5.0,-999.0,32,0.00,,,-99.99,,2013-07-06 06:43:00,
2013-07-06 00:53:00,86.0,54.0,29.90,NW,309,9.0,-999.0,34,0.00,,,-99.99,,2013-07-06 06:53:00,
2013-07-06 01:02:00,86.0,55.0,29.90,WNW,287,6.0,-999.0,35,0.00,,,-99.99,,2013-07-06 07:02:00,
2013-07-06 01:12:00,85.0,55.0,29.90,WSW,253,8.0,-999.0,36,0.00,,,-99.99,,2013-07-06 07:12:00,
2013-07-06 01:22:00,85.0,55.0,29.90,West,270,17.0,-999.0,36,0.00,,,-99.99,,2013-07-06 07:22:00,
2013-07-06 01:33:00,84.0,55.0,29.89,WSW,242,9.0,-999.0,37,0.00,,,-99.99,,2013-07-06 07:33:00,
2013-07-06 01:43:00,84.0,56.0,29.88,WNW,285,11.0,-999.0,38,0.00,,,-99.99,,2013-07-06 07:43:00,
2013-07-06 01:52:00,84.0,55.0,29.88,WSW,249,5.0,-999.0,37,0.00,,,-99.99,,2013-07-06 07:52:00,
2013-07-06 02:02:00,84.0,56.0,29.88,West,280,4.0,-999.0,38,0.00,,,-99.99,,2013-07-06 08:02:00,
2013-07-06 02:11:00,83.0,55.0,29.88,WNW,301,8.0,-999.0,38,0.00,,,-99.99,,2013-07-06 08:11:00,
2013-07-06 02:21:00,83.0,55.0,29.88,ESE,105,0.0,-999.0,39,0.00,,,-99.99,,2013-07-06 08:21:00,
2013-07-06 02:33:00,83.0,55.0,29.89,East,98,0.0,-999.0,39,0.00,,,-99.99,,2013-07-06 08:33:00,
2013-07-06 02:43:00,83.0,55.0,29.89,East,101,0.0,-999.0,39,0.00,,,-99.99,,2013-07-06 08:43:00,
2013-07-06 02:54:00,82.0,55.0,29.88,ESE,115,0.0,-999.0,39,0.00,,,-99.99,,2013-07-06 08:54:00,
2013-07-06 03:02:00,83.0,55.0,29.87,NNE,15,6.0,-999.0,38,0.00,,,-99.99,,2013-07-06 09:02:00,
2013-07-06 03:11:00,84.0,56.0,29.85,South,177,3.0,-999.0,38,0.00,,,-99.99,,2013-07-06 09:11:00,
2013-07-06 03:22:00,83.0,54.0,29.84,SE,146,3.0,-999.0,37,0.00,,,-99.99,,2013-07-06 09:22:00,
2013-07-06 03:33:00,83.0,54.0,29.84,SE,146,0.0,-999.0,37,0.00,,,-99.99,,2013-07-06 09:33:00,
2013-07-06 03:43:00,82.0,55.0,29.84,SE,127,0.0,-999.0,39,0.00,,,-99.99,,2013-07-06 09:43:00,
2013-07-06 03:52:00,82.0,55.0,29.83,SE,124,0.0,-999.0,39,0.00,,,-99.99,,2013-07-06 09:52:00,
2013-07-06 04:02:00,82.0,55.0,29.83,NE,48,0.0,-999.0,40,0.00,,,-99.99,,2013-07-06 10:02:00,
2013-07-06 04:11:00,81.0,55.0,29.83,NE,48,0.0,-999.0,41,0.00,,,-99.99,,2013-07-06 10:11:00,
2013-07-06 04:22:00,81.0,56.0,29.84,NE,48,0.0,-999.0,42,0.00,,,-99.99,,2013-07-06 10:22:00,
2013-07-06 04:33:00,80.0,55.0,29.84,NE,48,0.0,-999.0,42,0.00,,,-99.99,,2013-07-06 10:33:00,
2013-07-06 04:42:00,80.0,55.0,29.85,NE,48,0.0,-999.0,43,0.00,,,-99.99,,2013-07-06 10:42:00,
2013-07-06 04:53:00,80.0,56.0,29.85,NE,48,0.0,-999.0,44,0.00,,,-99.99,,2013-07-06 10:53:00,
2013-07-06 05:01:00,80.0,56.0,29.85,NE,48,0.0,-999.0,44,0.00,,,-99.99,,2013-07-06 11:01:00,
2013-07-06 05:11:00,80.0,56.0,29.85,NE,48,0.0,-999.0,44,0.00,,,-99.99,,2013-07-06 11:11:00,
2013-07-06 05:22:00,80.0,56.0,29.85,NE,48,0.0,-999.0,44,0.00,,,-99.99,,2013-07-06 11:22:00,
2013-07-06 05:33:00,79.0,56.0,29.84,NE,48,0.0,-999.0,45,0.00,,,-99.99,,2013-07-06 11:33:00,
2013-07-06 05:42:00,79.0,56.0,29.84,NE,48,0.0,-999.0,46,0.00,,,-99.99,,2013-07-06 11:42:00,
2013-07-06 05:52:00,79.0,56.0,29.84,NE,48,0.0,-999.0,46,0.00,,,-99.99,,2013-07-06 11:52:00,
2013-07-06 06:01:00,79.0,56.0,29.85,NE,45,0.0,-999.0,46,0.00,,,-99.99,,2013-07-06 12:01:00,
2013-07-06 06:11:00,79.0,56.0,29.84,NE,45,0.0,-999.0,46,0.00,,,-99.99,,2013-07-06 12:11:00,
2013-07-06 06:22:00,78.0,56.0,29.85,NE,45,0.0,-999.0,46,0.00,,,-99.99,,2013-07-06 12:22:00,
2013-07-06 06:33:00,78.0,56.0,29.85,NE,45,0.0,-999.0,47,0.00,,,-99.99,,2013-07-06 12:33:00,
2013-07-06 06:43:00,78.0,57.0,29.85,NE,45,0.0,-999.0,48,0.00,,,-99.99,,2013-07-06 12:43:00,
2013-07-06 06:52:00,78.0,57.0,29.85,NE,45,0.0,-999.0,48,0.00,,,-99.99,,2013-07-06 12:52:00,
2013-07-06 07:01:00,78.0,56.0,29.85,NE,45,0.0,-999.0,46,0.00,,,-99.99,,2013-07-06 13:01:00,
2013-07-06 07:12:00,79.0,54.0,29.85,NE,45,0.0,-999.0,42,0.00,,,-99.99,,2013-07-06 13:12:00,
2013-07-06 07:22:00,81.0,53.0,29.86,NNW,339,3.0,-999.0,38,0.00,,,-99.99,,2013-07-06 13:22:00,
2013-07-06 07:33:00,81.0,52.0,29.86,NNE,20,0.0,-999.0,37,0.00,,,-99.99,,2013-07-06 13:33:00,
2013-07-06 07:43:00,83.0,52.0,29.87,SSE,153,0.0,-999.0,35,0.00,,,-99.99,,2013-07-06 13:43:00,
2013-07-06 07:52:00,83.0,52.0,29.87,North,3,0.0,-999.0,35,0.00,,,-99.99,,2013-07-06 13:52:00,
2013-07-06 08:02:00,83.0,52.0,29.88,NE,55,3.0,-999.0,34,0.00,,,-99.99,,2013-07-06 14:02:00,
2013-07-06 08:11:00,83.0,52.0,29.88,ENE,59,3.0,-999.0,35,0.00,,,-99.99,,2013-07-06 14:11:00,
2013-07-06 08:22:00,83.0,52.0,29.89,North,359,3.0,-999.0,34,0.00,,,-99.99,,2013-07-06 14:22:00,
2013-07-06 08:34:00,83.0,51.0,29.89,North,1,0.0,-999.0,33,0.00,,,-99.99,,2013-07-06 14:34:00,
2013-07-06 08:42:00,84.0,53.0,29.90,NE,35,8.0,-999.0,34,0.00,,,-99.99,,2013-07-06 14:42:00,
2013-07-06 08:53:00,84.0,53.0,29.90,NNE,32,5.0,-999.0,34,0.00,,,-99.99,,2013-07-06 14:53:00,
2013-07-06 09:02:00,84.0,53.0,29.90,NNE,25,0.0,-999.0,35,0.00,,,-99.99,,2013-07-06 15:02:00,
2013-07-06 09:12:00,85.0,53.0,29.90,NNE,31,0.0,-999.0,34,0.00,,,-99.99,,2013-07-06 15:12:00,
2013-07-06 09:22:00,85.0,53.0,29.91,North,359,0.0,-999.0,34,0.00,,,-99.99,,2013-07-06 15:22:00,
2013-07-06 09:33:00,85.0,53.0,29.91,North,359,0.0,-999.0,34,0.00,,,-99.99,,2013-07-06 15:33:00,
2013-07-06 09:43:00,85.0,53.0,29.90,NNE,21,0.0,-999.0,34,0.00,,,-99.99,,2013-07-06 15:43:00,
2013-07-06 09:52:00,85.0,52.0,29.90,NW,321,0.0,-999.0,32,0.00,,,-99.99,,2013-07-06 15:52:00,
2013-07-06 10:05:00,86.0,53.0,29.90,NNE,25,0.0,-999.0,32,0.00,,,-99.99,,2013-07-06 16:05:00,
2013-07-06 10:15:00,87.0,54.0,29.90,NNE,13,0.0,-999.0,32,0.00,,,-99.99,,2013-07-06 16:15:00,
2013-07-06 10:23:00,88.0,54.0,29.90,North,6,0.0,-999.0,31,0.00,,,-99.99,,2013-07-06 16:23:00,
2013-07-06 10:39:00,88.0,53.0,29.90,NE,38,0.0,-999.0,30,0.00,,,-99.99,,2013-07-06 16:39:00,
2013-07-06 11:08:00,89.0,52.0,29.90,NNE,21,0.0,-999.0,28,0.00,,,-99.99,,2013-07-06 17:08:00,
2013-07-06 11:19:00,90.0,52.0,29.90,North,353,0.0,-999.0,28,0.00,,,-99.99,,2013-07-06 17:19:00,
2013-07-06 11:27:00,90.0,51.0,29.90,NNE,23,0.0,-999.0,27,0.00,,,-99.99,,2013-07-06 17:27:00,
2013-07-06 11:39:00,91.0,51.0,29.90,NE,37,0.0,-999.0,26,0.00,,,-99.99,,2013-07-06 17:39:00,
2013-07-06 12:06:00,93.0,50.0,29.88,East,94,0.0,-999.0,23,0.00,,,-99.99,,2013-07-06 18:06:00,
2013-07-06 12:20:00,94.0,53.0,29.88,East,94,0.0,-999.0,25,0.00,,,-99.99,,2013-07-06 18:20:00,
2013-07-06 12:28:00,95.0,50.0,29.88,NNE,20,0.0,-999.0,22,0.00,,,-99.99,,2013-07-06 18:28:00,
2013-07-06 12:39:00,95.0,49.0,29.88,NNE,20,0.0,-999.0,21,0.00,,,-99.99,,2013-07-06 18:39:00,
2013-07-06 12:57:00,95.0,51.0,29.88,SSE,156,4.0,-999.0,23,0.00,,,-99.99,,2013-07-06 18:57:00,
2013-07-06 13:08:00,96.0,52.0,29.87,SE,134,0.0,-999.0,23,0.00,,,-99.99,,2013-07-06 19:08:00,
2013-07-06 13:38:00,97.0,52.0,29.86,SE,132,0.0,-999.0,22,0.00,,,-99.99,,2013-07-06 19:38:00,
2013-07-06 13:49:00,98.0,50.0,29.85,SW,229,0.0,-999.0,20,0.00,,,-99.99,,2013-07-06 19:49:00,
2013-07-06 13:54:00,98.0,49.0,29.85,SW,236,0.0,-999.0,19,0.00,,,-99.99,,2013-07-06 19:54:00,
2013-07-06 14:08:00,98.0,44.0,29.84,SSW,210,10.0,-999.0,16,0.00,,,-99.99,,2013-07-06 20:08:00,
2013-07-06 14:27:00,98.0,49.0,29.84,SW,222,0.0,-999.0,19,0.00,,,-99.99,,2013-07-06 20:27:00,
2013-07-06 14:40:00,99.0,48.0,29.83,South,187,0.0,-999.0,18,0.00,,,-99.99,,2013-07-06 20:40:00,
2013-07-06 14:49:00,99.0,47.0,29.83,SW,229,2.0,-999.0,17,0.00,,,-99.99,,2013-07-06 20:49:00,
2013-07-06 14:57:00,100.0,49.0,29.88,South,191,4.0,-999.0,18,0.00,,,-99.99,,2013-07-06 20:57:00,
2013-07-06 15:28:00,100.0,47.0,29.89,SSE,148,0.0,-999.0,17,0.00,,,-99.99,,2013-07-06 21:28:00,
2013-07-06 15:49:00,101.0,46.0,29.88,South,188,4.0,-999.0,16,0.00,,,-99.99,,2013-07-06 21:49:00,
2013-07-06 15:57:00,101.0,45.0,29.88,ESE,117,0.0,-999.0,15,0.00,,,-99.99,,2013-07-06 21:57:00,
2013-07-06 16:09:00,101.0,45.0,29.88,SSW,208,5.0,-999.0,15,0.00,,,-99.99,,2013-07-06 22:09:00,
2013-07-06 16:49:00,101.0,45.0,29.86,SSE,167,0.0,-999.0,15,0.00,,,-99.99,,2013-07-06 22:49:00,
2013-07-06 17:28:00,101.0,43.0,29.85,ESE,118,0.0,-999.0,14,0.00,,,-99.99,,2013-07-06 23:28:00,
2013-07-06 17:40:00,102.0,44.0,29.85,SSW,193,0.0,-999.0,14,0.00,,,-99.99,,2013-07-06 23:40:00,
2013-07-06 17:57:00,101.0,43.0,29.84,West,271,2.0,-999.0,14,0.00,,,-99.99,,2013-07-06 23:57:00,
2013-07-06 18:19:00,101.0,43.0,29.84,South,169,0.0,-999.0,14,0.00,,,-99.99,,2013-07-07 00:19:00,
2013-07-06 18:49:00,101.0,43.0,29.84,SSW,205,0.0,-999.0,14,0.00,,,-99.99,,2013-07-07 00:49:00,
2013-07-06 18:56:00,101.0,43.0,29.84,SSW,205,0.0,-999.0,14,0.00,,,-99.99,,2013-07-07 00:56:00,
2013-07-06 19:07:00,100.0,42.0,29.84,SSW,205,0.0,-999.0,14,0.00,,,-99.99,,2013-07-07 01:07:00,
2013-07-06 19:19:00,100.0,42.0,29.83,ESE,108,0.0,-999.0,14,0.00,,,-99.99,,2013-07-07 01:19:00,
2013-07-06 19:27:00,100.0,42.0,29.83,ESE,108,0.0,-999.0,14,0.00,,,-99.99,,2013-07-07 01:27:00,
2013-07-06 19:39:00,100.0,42.0,29.83,ESE,108,0.0,-999.0,14,0.00,,,-99.99,,2013-07-07 01:39:00,
2013-07-06 19:56:00,100.0,42.0,29.83,ESE,108,0.0,-999.0,14,0.00,,,-99.99,,2013-07-07 01:56:00,
2013-07-06 20:11:00,98.0,42.0,29.83,SE,145,0.0,-999.0,15,0.00,,,-99.99,,2013-07-07 02:11:00,
2013-07-06 20:47:00,98.0,42.0,29.83,SE,145,0.0,-999.0,15,0.00,,,-99.99,,2013-07-07 02:47:00,
2013-07-06 21:42:00,98.0,44.0,29.84,SE,145,0.0,-999.0,16,0.00,,,-99.99,,2013-07-07 03:42:00,
2013-07-06 22:01:00,98.0,44.0,29.84,SE,145,0.0,-999.0,16,0.00,,,-99.99,,2013-07-07 04:01:00,
2013-07-06 22:11:00,98.0,44.0,29.84,SE,145,0.0,-999.0,16,0.00,,,-99.99,,2013-07-07 04:11:00,
2013-07-06 22:41:00,97.0,43.0,29.84,SE,145,0.0,-999.0,16,0.00,,,-99.99,,2013-07-07 04:41:00,
2013-07-06 22:51:00,97.0,43.0,29.84,SE,145,0.0,-999.0,16,0.00,,,-99.99,,2013-07-07 04:51:00,
2013-07-06 23:01:00,97.0,43.0,29.84,SE,145,0.0,-999.0,16,0.00,,,-99.99,,2013-07-07 05:01:00,
2013-07-06 23:21:00,90.0,47.0,29.88,SSE,148,0.0,-999.0,23,0.00,,,-99.99,,2013-07-07 05:21:00,
2013-07-06 23:31:00,90.0,47.0,29.88,SSE,148,0.0,-999.0,23,0.00,,,-99.99,,2013-07-07 05:31:00,
2013-07-06 23:41:00,90.0,47.0,29.88,SSE,148,0.0,-999.0,23,0.00,,,-99.99,,2013-07-07 05:41:00,
2013-07-06 23:51:00,90.0,47.0,29.88,SSE,148,0.0,-999.0,23,0.00,,,-99.99,,2013-07-07 05:51:00,